sensor_id;sensor_type;location;lat;lon;timestamp;P1;durP1;ratioP1;P2;durP2;ratioP2
4112;SDS011;2070;51.042;7.056;2023-04-16T00:02:14;69.50;;;25.97;;
4112;SDS011;2070;51.042;7.056;2023-04-16T00:04:40;73.40;;;27.73;;
4112;SDS011;2070;51.042;7.056;2023-04-16T00:07:06;76.53;;;31.40;;
4112;SDS011;2070;51.042;7.056;2023-04-16T00:09:31;80.73;;;32.20;;
4112;SDS011;2070;51.042;7.056;2023-04-16T00:11:56;79.13;;;30.10;;
4112;SDS011;2070;51.042;7.056;2023-04-16T00:14:21;78.40;;;31.50;;
4112;SDS011;2070;51.042;7.056;2023-04-16T00:16:46;78.20;;;32.73;;
4112;SDS011;2070;51.042;7.056;2023-04-16T00:19:11;74.53;;;30.00;;
4112;SDS011;2070;51.042;7.056;2023-04-16T00:21:37;71.47;;;28.97;;
4112;SDS011;2070;51.042;7.056;2023-04-16T00:24:02;70.83;;;32.17;;
4112;SDS011;2070;51.042;7.056;2023-04-16T00:26:27;74.07;;;29.73;;
4112;SDS011;2070;51.042;7.056;2023-04-16T00:28:52;74.97;;;28.57;;
4112;SDS011;2070;51.042;7.056;2023-04-16T00:31:22;69.70;;;28.80;;
4112;SDS011;2070;51.042;7.056;2023-04-16T00:33:49;80.57;;;30.93;;
4112;SDS011;2070;51.042;7.056;2023-04-16T00:36:15;92.00;;;28.70;;
4112;SDS011;2070;51.042;7.056;2023-04-16T00:38:40;76.50;;;28.37;;
4112;SDS011;2070;51.042;7.056;2023-04-16T00:41:06;60.87;;;26.20;;
4112;SDS011;2070;51.042;7.056;2023-04-16T00:43:31;76.60;;;26.03;;
4112;SDS011;2070;51.042;7.056;2023-04-16T00:45:56;78.30;;;27.37;;
4112;SDS011;2070;51.042;7.056;2023-04-16T00:48:22;65.40;;;26.73;;
4112;SDS011;2070;51.042;7.056;2023-04-16T00:50:47;64.30;;;26.50;;
4112;SDS011;2070;51.042;7.056;2023-04-16T00:53:13;74.20;;;29.87;;
4112;SDS011;2070;51.042;7.056;2023-04-16T00:55:38;83.63;;;28.60;;
4112;SDS011;2070;51.042;7.056;2023-04-16T00:58:03;95.47;;;26.90;;
4112;SDS011;2070;51.042;7.056;2023-04-16T01:00:29;72.80;;;29.43;;
4112;SDS011;2070;51.042;7.056;2023-04-16T01:02:54;81.27;;;30.63;;
4112;SDS011;2070;51.042;7.056;2023-04-16T01:05:19;79.50;;;28.80;;
4112;SDS011;2070;51.042;7.056;2023-04-16T01:07:45;74.60;;;28.80;;
4112;SDS011;2070;51.042;7.056;2023-04-16T01:10:10;99.53;;;32.63;;
4112;SDS011;2070;51.042;7.056;2023-04-16T01:12:35;83.70;;;29.67;;
4112;SDS011;2070;51.042;7.056;2023-04-16T01:15:00;83.37;;;31.07;;
4112;SDS011;2070;51.042;7.056;2023-04-16T01:17:26;85.90;;;30.17;;
4112;SDS011;2070;51.042;7.056;2023-04-16T01:19:51;80.23;;;34.27;;
4112;SDS011;2070;51.042;7.056;2023-04-16T01:22:16;75.80;;;30.50;;
4112;SDS011;2070;51.042;7.056;2023-04-16T01:24:41;71.90;;;30.50;;
4112;SDS011;2070;51.042;7.056;2023-04-16T01:27:06;85.87;;;32.20;;
4112;SDS011;2070;51.042;7.056;2023-04-16T01:29:31;84.20;;;30.30;;
4112;SDS011;2070;51.042;7.056;2023-04-16T01:31:57;83.10;;;29.97;;
4112;SDS011;2070;51.042;7.056;2023-04-16T01:34:22;73.77;;;28.87;;
4112;SDS011;2070;51.042;7.056;2023-04-16T01:36:47;65.53;;;27.57;;
4112;SDS011;2070;51.042;7.056;2023-04-16T01:39:12;76.47;;;29.53;;
4112;SDS011;2070;51.042;7.056;2023-04-16T01:41:39;82.43;;;26.10;;
4112;SDS011;2070;51.042;7.056;2023-04-16T01:44:04;77.43;;;28.87;;
4112;SDS011;2070;51.042;7.056;2023-04-16T01:46:30;64.70;;;29.40;;
4112;SDS011;2070;51.042;7.056;2023-04-16T01:48:59;73.27;;;27.30;;
4112;SDS011;2070;51.042;7.056;2023-04-16T01:51:25;66.03;;;26.47;;
4112;SDS011;2070;51.042;7.056;2023-04-16T01:53:51;85.37;;;27.20;;
4112;SDS011;2070;51.042;7.056;2023-04-16T01:56:16;57.07;;;22.67;;
4112;SDS011;2070;51.042;7.056;2023-04-16T01:58:41;59.43;;;24.60;;
4112;SDS011;2070;51.042;7.056;2023-04-16T02:01:07;59.83;;;22.50;;
4112;SDS011;2070;51.042;7.056;2023-04-16T02:03:32;59.80;;;25.40;;
4112;SDS011;2070;51.042;7.056;2023-04-16T02:05:57;67.73;;;25.47;;
4112;SDS011;2070;51.042;7.056;2023-04-16T02:08:23;57.60;;;25.33;;
4112;SDS011;2070;51.042;7.056;2023-04-16T02:10:48;69.80;;;25.03;;
4112;SDS011;2070;51.042;7.056;2023-04-16T02:13:14;52.13;;;24.40;;
4112;SDS011;2070;51.042;7.056;2023-04-16T02:15:43;53.20;;;23.97;;
4112;SDS011;2070;51.042;7.056;2023-04-16T02:18:08;81.33;;;30.20;;
4112;SDS011;2070;51.042;7.056;2023-04-16T02:20:33;68.93;;;28.17;;
4112;SDS011;2070;51.042;7.056;2023-04-16T02:23:00;69.30;;;28.23;;
4112;SDS011;2070;51.042;7.056;2023-04-16T02:25:25;75.97;;;30.07;;
4112;SDS011;2070;51.042;7.056;2023-04-16T02:27:51;82.57;;;29.10;;
4112;SDS011;2070;51.042;7.056;2023-04-16T02:30:16;68.33;;;28.83;;
4112;SDS011;2070;51.042;7.056;2023-04-16T02:32:41;87.23;;;30.47;;
4112;SDS011;2070;51.042;7.056;2023-04-16T02:35:07;81.57;;;30.30;;
4112;SDS011;2070;51.042;7.056;2023-04-16T02:37:32;103.50;;;29.53;;
4112;SDS011;2070;51.042;7.056;2023-04-16T02:39:57;97.70;;;32.37;;
4112;SDS011;2070;51.042;7.056;2023-04-16T02:42:22;113.47;;;31.43;;
4112;SDS011;2070;51.042;7.056;2023-04-16T02:44:47;80.27;;;31.90;;
4112;SDS011;2070;51.042;7.056;2023-04-16T02:47:13;83.00;;;32.10;;
4112;SDS011;2070;51.042;7.056;2023-04-16T02:49:38;83.70;;;30.60;;
4112;SDS011;2070;51.042;7.056;2023-04-16T02:52:03;77.70;;;31.10;;
4112;SDS011;2070;51.042;7.056;2023-04-16T02:54:28;90.70;;;30.87;;
4112;SDS011;2070;51.042;7.056;2023-04-16T02:56:53;92.70;;;31.40;;
4112;SDS011;2070;51.042;7.056;2023-04-16T02:59:19;95.27;;;31.30;;
4112;SDS011;2070;51.042;7.056;2023-04-16T03:01:44;99.93;;;31.17;;
4112;SDS011;2070;51.042;7.056;2023-04-16T03:04:09;90.23;;;30.43;;
4112;SDS011;2070;51.042;7.056;2023-04-16T03:06:34;82.80;;;28.27;;
4112;SDS011;2070;51.042;7.056;2023-04-16T03:08:59;90.47;;;30.80;;
4112;SDS011;2070;51.042;7.056;2023-04-16T03:11:25;91.00;;;32.47;;
4112;SDS011;2070;51.042;7.056;2023-04-16T03:13:50;88.97;;;30.93;;
4112;SDS011;2070;51.042;7.056;2023-04-16T03:16:15;79.87;;;30.87;;
4112;SDS011;2070;51.042;7.056;2023-04-16T03:18:40;91.13;;;29.53;;
4112;SDS011;2070;51.042;7.056;2023-04-16T03:21:05;107.17;;;34.10;;
4112;SDS011;2070;51.042;7.056;2023-04-16T03:23:31;88.47;;;31.10;;
4112;SDS011;2070;51.042;7.056;2023-04-16T03:25:56;88.40;;;31.00;;
4112;SDS011;2070;51.042;7.056;2023-04-16T03:28:21;78.93;;;30.50;;
4112;SDS011;2070;51.042;7.056;2023-04-16T03:30:50;82.43;;;30.27;;
4112;SDS011;2070;51.042;7.056;2023-04-16T03:33:15;94.50;;;32.07;;
4112;SDS011;2070;51.042;7.056;2023-04-16T03:35:41;86.93;;;30.07;;
4112;SDS011;2070;51.042;7.056;2023-04-16T03:38:06;99.83;;;32.67;;
4112;SDS011;2070;51.042;7.056;2023-04-16T03:40:31;98.03;;;31.57;;
4112;SDS011;2070;51.042;7.056;2023-04-16T03:42:56;108.53;;;32.37;;
4112;SDS011;2070;51.042;7.056;2023-04-16T03:45:21;74.27;;;30.17;;
4112;SDS011;2070;51.042;7.056;2023-04-16T03:47:47;92.87;;;31.87;;
4112;SDS011;2070;51.042;7.056;2023-04-16T03:50:16;87.57;;;29.73;;
4112;SDS011;2070;51.042;7.056;2023-04-16T03:52:41;82.63;;;30.60;;
4112;SDS011;2070;51.042;7.056;2023-04-16T03:55:06;93.70;;;30.97;;
4112;SDS011;2070;51.042;7.056;2023-04-16T03:57:32;121.83;;;32.30;;
4112;SDS011;2070;51.042;7.056;2023-04-16T03:59:57;83.77;;;25.03;;
4112;SDS011;2070;51.042;7.056;2023-04-16T04:02:22;63.30;;;28.10;;
4112;SDS011;2070;51.042;7.056;2023-04-16T04:04:47;70.27;;;24.97;;
4112;SDS011;2070;51.042;7.056;2023-04-16T04:07:12;67.93;;;28.20;;
4112;SDS011;2070;51.042;7.056;2023-04-16T04:09:39;62.47;;;25.13;;
4112;SDS011;2070;51.042;7.056;2023-04-16T04:12:04;74.10;;;26.23;;
4112;SDS011;2070;51.042;7.056;2023-04-16T04:14:30;98.37;;;27.73;;
4112;SDS011;2070;51.042;7.056;2023-04-16T04:16:55;61.87;;;24.30;;
4112;SDS011;2070;51.042;7.056;2023-04-16T04:19:20;57.23;;;22.83;;
4112;SDS011;2070;51.042;7.056;2023-04-16T04:21:45;50.40;;;21.80;;
4112;SDS011;2070;51.042;7.056;2023-04-16T04:24:10;60.37;;;21.37;;
4112;SDS011;2070;51.042;7.056;2023-04-16T04:26:36;48.23;;;20.43;;
4112;SDS011;2070;51.042;7.056;2023-04-16T04:29:01;61.77;;;24.30;;
4112;SDS011;2070;51.042;7.056;2023-04-16T04:31:26;70.77;;;24.20;;
4112;SDS011;2070;51.042;7.056;2023-04-16T04:33:51;64.90;;;22.67;;
4112;SDS011;2070;51.042;7.056;2023-04-16T04:36:16;63.73;;;23.60;;
4112;SDS011;2070;51.042;7.056;2023-04-16T04:38:42;65.60;;;24.37;;
4112;SDS011;2070;51.042;7.056;2023-04-16T04:41:07;60.47;;;24.30;;
4112;SDS011;2070;51.042;7.056;2023-04-16T04:43:32;74.67;;;25.60;;
4112;SDS011;2070;51.042;7.056;2023-04-16T04:45:57;75.07;;;26.00;;
4112;SDS011;2070;51.042;7.056;2023-04-16T04:48:22;77.67;;;24.63;;
4112;SDS011;2070;51.042;7.056;2023-04-16T04:50:50;63.73;;;23.50;;
4112;SDS011;2070;51.042;7.056;2023-04-16T04:53:15;74.37;;;24.60;;
4112;SDS011;2070;51.042;7.056;2023-04-16T04:55:41;65.53;;;25.07;;
4112;SDS011;2070;51.042;7.056;2023-04-16T04:58:06;62.17;;;22.07;;
4112;SDS011;2070;51.042;7.056;2023-04-16T05:00:32;53.63;;;23.37;;
4112;SDS011;2070;51.042;7.056;2023-04-16T05:03:00;75.23;;;24.40;;
4112;SDS011;2070;51.042;7.056;2023-04-16T05:05:26;56.50;;;22.23;;
4112;SDS011;2070;51.042;7.056;2023-04-16T05:07:51;66.13;;;24.60;;
4112;SDS011;2070;51.042;7.056;2023-04-16T05:10:16;61.90;;;24.60;;
4112;SDS011;2070;51.042;7.056;2023-04-16T05:12:41;56.27;;;23.60;;
4112;SDS011;2070;51.042;7.056;2023-04-16T05:15:07;66.17;;;21.57;;
4112;SDS011;2070;51.042;7.056;2023-04-16T05:17:32;73.00;;;23.17;;
4112;SDS011;2070;51.042;7.056;2023-04-16T05:19:57;60.30;;;23.23;;
4112;SDS011;2070;51.042;7.056;2023-04-16T05:22:22;78.47;;;26.50;;
4112;SDS011;2070;51.042;7.056;2023-04-16T05:24:48;62.27;;;22.70;;
4112;SDS011;2070;51.042;7.056;2023-04-16T05:27:13;59.60;;;22.90;;
4112;SDS011;2070;51.042;7.056;2023-04-16T05:29:38;70.93;;;23.20;;
4112;SDS011;2070;51.042;7.056;2023-04-16T05:32:04;66.50;;;23.87;;
4112;SDS011;2070;51.042;7.056;2023-04-16T05:34:29;63.13;;;22.93;;
4112;SDS011;2070;51.042;7.056;2023-04-16T05:36:54;48.07;;;19.93;;
4112;SDS011;2070;51.042;7.056;2023-04-16T05:39:19;53.73;;;22.70;;
4112;SDS011;2070;51.042;7.056;2023-04-16T05:41:45;61.90;;;22.30;;
4112;SDS011;2070;51.042;7.056;2023-04-16T05:44:10;69.57;;;20.60;;
4112;SDS011;2070;51.042;7.056;2023-04-16T05:46:35;49.20;;;20.23;;
4112;SDS011;2070;51.042;7.056;2023-04-16T05:49:00;62.50;;;21.13;;
4112;SDS011;2070;51.042;7.056;2023-04-16T05:51:25;49.93;;;21.60;;
4112;SDS011;2070;51.042;7.056;2023-04-16T05:53:51;46.47;;;21.13;;
4112;SDS011;2070;51.042;7.056;2023-04-16T05:56:17;69.63;;;23.87;;
4112;SDS011;2070;51.042;7.056;2023-04-16T05:58:42;54.20;;;22.13;;
4112;SDS011;2070;51.042;7.056;2023-04-16T06:01:07;60.37;;;22.60;;
4112;SDS011;2070;51.042;7.056;2023-04-16T06:03:32;55.60;;;21.53;;
4112;SDS011;2070;51.042;7.056;2023-04-16T06:05:57;78.80;;;23.23;;
4112;SDS011;2070;51.042;7.056;2023-04-16T06:08:23;81.40;;;23.17;;
4112;SDS011;2070;51.042;7.056;2023-04-16T06:10:48;53.07;;;21.73;;
4112;SDS011;2070;51.042;7.056;2023-04-16T06:13:13;56.17;;;24.97;;
4112;SDS011;2070;51.042;7.056;2023-04-16T06:15:38;69.77;;;23.77;;
4112;SDS011;2070;51.042;7.056;2023-04-16T06:18:03;71.00;;;23.00;;
4112;SDS011;2070;51.042;7.056;2023-04-16T06:20:29;56.50;;;21.60;;
4112;SDS011;2070;51.042;7.056;2023-04-16T06:22:54;61.33;;;21.00;;
4112;SDS011;2070;51.042;7.056;2023-04-16T06:25:19;56.53;;;21.60;;
4112;SDS011;2070;51.042;7.056;2023-04-16T06:27:45;60.67;;;22.10;;
4112;SDS011;2070;51.042;7.056;2023-04-16T06:30:13;61.83;;;23.63;;
4112;SDS011;2070;51.042;7.056;2023-04-16T06:32:39;61.20;;;24.77;;
4112;SDS011;2070;51.042;7.056;2023-04-16T06:35:04;68.07;;;23.70;;
4112;SDS011;2070;51.042;7.056;2023-04-16T06:37:30;58.47;;;22.77;;
4112;SDS011;2070;51.042;7.056;2023-04-16T06:39:55;61.83;;;22.73;;
4112;SDS011;2070;51.042;7.056;2023-04-16T06:42:20;75.53;;;24.50;;
4112;SDS011;2070;51.042;7.056;2023-04-16T06:44:45;50.40;;;22.57;;
4112;SDS011;2070;51.042;7.056;2023-04-16T06:47:10;61.07;;;24.73;;
4112;SDS011;2070;51.042;7.056;2023-04-16T06:49:36;61.40;;;23.27;;
4112;SDS011;2070;51.042;7.056;2023-04-16T06:52:01;67.00;;;21.40;;
4112;SDS011;2070;51.042;7.056;2023-04-16T06:54:26;56.50;;;22.40;;
4112;SDS011;2070;51.042;7.056;2023-04-16T06:56:51;48.73;;;23.13;;
4112;SDS011;2070;51.042;7.056;2023-04-16T06:59:16;59.90;;;20.37;;
4112;SDS011;2070;51.042;7.056;2023-04-16T07:01:42;47.57;;;18.77;;
4112;SDS011;2070;51.042;7.056;2023-04-16T07:04:07;54.73;;;21.60;;
4112;SDS011;2070;51.042;7.056;2023-04-16T07:06:33;52.33;;;20.67;;
4112;SDS011;2070;51.042;7.056;2023-04-16T07:08:58;39.77;;;18.03;;
4112;SDS011;2070;51.042;7.056;2023-04-16T07:11:23;47.70;;;19.73;;
4112;SDS011;2070;51.042;7.056;2023-04-16T07:13:49;46.17;;;18.83;;
4112;SDS011;2070;51.042;7.056;2023-04-16T07:16:16;53.23;;;18.33;;
4112;SDS011;2070;51.042;7.056;2023-04-16T07:18:41;55.27;;;19.47;;
4112;SDS011;2070;51.042;7.056;2023-04-16T07:21:06;39.20;;;16.60;;
4112;SDS011;2070;51.042;7.056;2023-04-16T07:23:32;44.07;;;18.90;;
4112;SDS011;2070;51.042;7.056;2023-04-16T07:25:57;51.70;;;18.83;;
4112;SDS011;2070;51.042;7.056;2023-04-16T07:28:22;47.23;;;17.50;;
4112;SDS011;2070;51.042;7.056;2023-04-16T07:30:49;64.30;;;19.97;;
4112;SDS011;2070;51.042;7.056;2023-04-16T07:33:14;50.10;;;19.77;;
4112;SDS011;2070;51.042;7.056;2023-04-16T07:35:39;46.50;;;17.83;;
4112;SDS011;2070;51.042;7.056;2023-04-16T07:38:05;41.70;;;20.10;;
4112;SDS011;2070;51.042;7.056;2023-04-16T07:40:30;40.00;;;17.60;;
4112;SDS011;2070;51.042;7.056;2023-04-16T07:42:55;51.03;;;17.77;;
4112;SDS011;2070;51.042;7.056;2023-04-16T07:45:20;43.27;;;18.60;;
4112;SDS011;2070;51.042;7.056;2023-04-16T07:47:46;42.13;;;16.90;;
4112;SDS011;2070;51.042;7.056;2023-04-16T07:50:11;36.53;;;16.80;;
4112;SDS011;2070;51.042;7.056;2023-04-16T07:52:37;42.20;;;17.63;;
4112;SDS011;2070;51.042;7.056;2023-04-16T07:55:07;38.87;;;19.30;;
4112;SDS011;2070;51.042;7.056;2023-04-16T07:57:32;39.33;;;17.30;;
4112;SDS011;2070;51.042;7.056;2023-04-16T07:59:57;36.80;;;17.83;;
4112;SDS011;2070;51.042;7.056;2023-04-16T08:02:22;55.80;;;20.30;;
4112;SDS011;2070;51.042;7.056;2023-04-16T08:04:48;43.93;;;19.53;;
4112;SDS011;2070;51.042;7.056;2023-04-16T08:07:13;39.33;;;19.13;;
4112;SDS011;2070;51.042;7.056;2023-04-16T08:09:46;47.13;;;18.30;;
4112;SDS011;2070;51.042;7.056;2023-04-16T08:12:11;48.33;;;18.30;;
4112;SDS011;2070;51.042;7.056;2023-04-16T08:14:36;38.23;;;18.13;;
4112;SDS011;2070;51.042;7.056;2023-04-16T08:17:01;45.03;;;19.83;;
4112;SDS011;2070;51.042;7.056;2023-04-16T08:19:27;58.23;;;19.57;;
4112;SDS011;2070;51.042;7.056;2023-04-16T08:21:52;52.27;;;21.57;;
4112;SDS011;2070;51.042;7.056;2023-04-16T08:24:17;41.53;;;18.20;;
4112;SDS011;2070;51.042;7.056;2023-04-16T08:26:42;44.83;;;17.53;;
4112;SDS011;2070;51.042;7.056;2023-04-16T08:29:07;56.77;;;19.37;;
4112;SDS011;2070;51.042;7.056;2023-04-16T08:31:33;42.57;;;17.43;;
4112;SDS011;2070;51.042;7.056;2023-04-16T08:33:59;44.53;;;18.80;;
4112;SDS011;2070;51.042;7.056;2023-04-16T08:36:24;40.37;;;18.70;;
4112;SDS011;2070;51.042;7.056;2023-04-16T08:38:49;44.53;;;19.80;;
4112;SDS011;2070;51.042;7.056;2023-04-16T08:41:19;43.40;;;18.77;;
4112;SDS011;2070;51.042;7.056;2023-04-16T08:43:45;41.97;;;19.30;;
4112;SDS011;2070;51.042;7.056;2023-04-16T08:46:12;40.43;;;19.23;;
4112;SDS011;2070;51.042;7.056;2023-04-16T08:48:39;43.40;;;18.63;;
4112;SDS011;2070;51.042;7.056;2023-04-16T08:51:06;40.87;;;18.17;;
4112;SDS011;2070;51.042;7.056;2023-04-16T08:53:35;42.90;;;18.07;;
4112;SDS011;2070;51.042;7.056;2023-04-16T08:56:03;52.23;;;20.37;;
4112;SDS011;2070;51.042;7.056;2023-04-16T08:58:29;39.13;;;18.57;;
4112;SDS011;2070;51.042;7.056;2023-04-16T09:00:56;37.00;;;18.37;;
4112;SDS011;2070;51.042;7.056;2023-04-16T09:03:21;36.53;;;17.77;;
4112;SDS011;2070;51.042;7.056;2023-04-16T09:05:46;29.73;;;17.67;;
4112;SDS011;2070;51.042;7.056;2023-04-16T09:08:13;35.40;;;15.70;;
4112;SDS011;2070;51.042;7.056;2023-04-16T09:10:38;38.10;;;17.80;;
4112;SDS011;2070;51.042;7.056;2023-04-16T09:13:03;41.80;;;18.77;;
4112;SDS011;2070;51.042;7.056;2023-04-16T09:15:29;36.47;;;17.40;;
4112;SDS011;2070;51.042;7.056;2023-04-16T09:17:54;36.80;;;16.00;;
4112;SDS011;2070;51.042;7.056;2023-04-16T09:20:21;36.90;;;14.53;;
4112;SDS011;2070;51.042;7.056;2023-04-16T09:22:46;40.20;;;17.97;;
4112;SDS011;2070;51.042;7.056;2023-04-16T09:25:12;46.03;;;19.23;;
4112;SDS011;2070;51.042;7.056;2023-04-16T09:27:37;34.23;;;18.00;;
4112;SDS011;2070;51.042;7.056;2023-04-16T09:30:19;39.30;;;19.67;;
4112;SDS011;2070;51.042;7.056;2023-04-16T09:32:47;44.37;;;18.77;;
4112;SDS011;2070;51.042;7.056;2023-04-16T09:35:13;33.37;;;16.40;;
4112;SDS011;2070;51.042;7.056;2023-04-16T09:37:39;36.77;;;19.27;;
4112;SDS011;2070;51.042;7.056;2023-04-16T09:40:05;30.77;;;18.30;;
4112;SDS011;2070;51.042;7.056;2023-04-16T09:42:31;37.50;;;19.03;;
4112;SDS011;2070;51.042;7.056;2023-04-16T09:44:57;32.03;;;17.10;;
4112;SDS011;2070;51.042;7.056;2023-04-16T09:47:24;33.20;;;19.07;;
4112;SDS011;2070;51.042;7.056;2023-04-16T09:49:49;29.03;;;16.57;;
4112;SDS011;2070;51.042;7.056;2023-04-16T09:52:15;36.63;;;17.53;;
4112;SDS011;2070;51.042;7.056;2023-04-16T09:54:47;34.20;;;15.00;;
4112;SDS011;2070;51.042;7.056;2023-04-16T09:57:13;32.70;;;16.53;;
4112;SDS011;2070;51.042;7.056;2023-04-16T09:59:38;39.73;;;18.43;;
4112;SDS011;2070;51.042;7.056;2023-04-16T10:02:04;31.97;;;17.90;;
4112;SDS011;2070;51.042;7.056;2023-04-16T10:04:41;36.83;;;18.30;;
4112;SDS011;2070;51.042;7.056;2023-04-16T10:07:08;47.13;;;19.63;;
4112;SDS011;2070;51.042;7.056;2023-04-16T10:09:37;40.97;;;17.93;;
4112;SDS011;2070;51.042;7.056;2023-04-16T10:12:02;32.90;;;18.77;;
4112;SDS011;2070;51.042;7.056;2023-04-16T10:14:27;24.67;;;15.17;;
4112;SDS011;2070;51.042;7.056;2023-04-16T10:16:54;36.00;;;17.67;;
4112;SDS011;2070;51.042;7.056;2023-04-16T10:19:19;32.70;;;17.03;;
4112;SDS011;2070;51.042;7.056;2023-04-16T10:21:45;35.93;;;15.93;;
4112;SDS011;2070;51.042;7.056;2023-04-16T10:24:10;30.70;;;16.87;;
4112;SDS011;2070;51.042;7.056;2023-04-16T10:26:36;36.43;;;16.60;;
4112;SDS011;2070;51.042;7.056;2023-04-16T10:29:02;28.80;;;14.90;;
4112;SDS011;2070;51.042;7.056;2023-04-16T10:31:28;26.37;;;16.60;;
4112;SDS011;2070;51.042;7.056;2023-04-16T10:33:53;28.50;;;16.03;;
4112;SDS011;2070;51.042;7.056;2023-04-16T10:36:22;32.77;;;16.10;;
4112;SDS011;2070;51.042;7.056;2023-04-16T10:38:48;27.00;;;15.50;;
4112;SDS011;2070;51.042;7.056;2023-04-16T10:41:14;32.47;;;16.33;;
4112;SDS011;2070;51.042;7.056;2023-04-16T10:43:46;30.17;;;16.73;;
4112;SDS011;2070;51.042;7.056;2023-04-16T10:46:18;37.70;;;15.60;;
4112;SDS011;2070;51.042;7.056;2023-04-16T10:48:45;28.23;;;17.20;;
4112;SDS011;2070;51.042;7.056;2023-04-16T10:53:47;30.40;;;16.77;;
4112;SDS011;2070;51.042;7.056;2023-04-16T10:56:13;26.73;;;17.67;;
4112;SDS011;2070;51.042;7.056;2023-04-16T10:58:39;30.30;;;15.93;;
4112;SDS011;2070;51.042;7.056;2023-04-16T11:01:11;26.80;;;15.10;;
4112;SDS011;2070;51.042;7.056;2023-04-16T11:03:40;32.47;;;15.60;;
4112;SDS011;2070;51.042;7.056;2023-04-16T11:06:09;23.17;;;14.40;;
4112;SDS011;2070;51.042;7.056;2023-04-16T11:08:35;28.30;;;15.00;;
4112;SDS011;2070;51.042;7.056;2023-04-16T11:11:03;27.53;;;15.50;;
4112;SDS011;2070;51.042;7.056;2023-04-16T11:13:28;25.70;;;14.80;;
4112;SDS011;2070;51.042;7.056;2023-04-16T11:15:57;25.93;;;16.27;;
4112;SDS011;2070;51.042;7.056;2023-04-16T11:18:23;26.90;;;16.37;;
4112;SDS011;2070;51.042;7.056;2023-04-16T11:20:48;25.90;;;15.80;;
4112;SDS011;2070;51.042;7.056;2023-04-16T11:23:14;26.83;;;16.33;;
4112;SDS011;2070;51.042;7.056;2023-04-16T11:25:40;20.53;;;13.40;;
4112;SDS011;2070;51.042;7.056;2023-04-16T11:28:05;29.20;;;17.00;;
4112;SDS011;2070;51.042;7.056;2023-04-16T11:30:31;26.40;;;13.63;;
4112;SDS011;2070;51.042;7.056;2023-04-16T11:32:57;27.17;;;15.23;;
4112;SDS011;2070;51.042;7.056;2023-04-16T11:35:23;19.70;;;11.27;;
4112;SDS011;2070;51.042;7.056;2023-04-16T11:37:48;28.47;;;14.47;;
4112;SDS011;2070;51.042;7.056;2023-04-16T11:40:13;25.97;;;14.03;;
4112;SDS011;2070;51.042;7.056;2023-04-16T11:42:39;22.70;;;13.43;;
4112;SDS011;2070;51.042;7.056;2023-04-16T11:45:05;22.63;;;12.23;;
4112;SDS011;2070;51.042;7.056;2023-04-16T11:47:31;23.70;;;13.73;;
4112;SDS011;2070;51.042;7.056;2023-04-16T11:49:56;58.37;;;13.63;;
4112;SDS011;2070;51.042;7.056;2023-04-16T11:52:31;24.20;;;12.07;;
4112;SDS011;2070;51.042;7.056;2023-04-16T11:54:56;19.80;;;11.77;;
4112;SDS011;2070;51.042;7.056;2023-04-16T11:57:23;16.90;;;10.47;;
4112;SDS011;2070;51.042;7.056;2023-04-16T11:59:48;21.60;;;12.43;;
4112;SDS011;2070;51.042;7.056;2023-04-16T12:02:13;18.63;;;11.00;;
4112;SDS011;2070;51.042;7.056;2023-04-16T12:04:39;17.67;;;11.20;;
4112;SDS011;2070;51.042;7.056;2023-04-16T12:09:30;19.07;;;13.20;;
4112;SDS011;2070;51.042;7.056;2023-04-16T12:11:56;20.17;;;13.03;;
4112;SDS011;2070;51.042;7.056;2023-04-16T12:14:21;20.03;;;12.30;;
4112;SDS011;2070;51.042;7.056;2023-04-16T12:16:46;20.50;;;12.17;;
4112;SDS011;2070;51.042;7.056;2023-04-16T12:19:12;20.73;;;13.37;;
4112;SDS011;2070;51.042;7.056;2023-04-16T12:21:41;21.37;;;12.10;;
4112;SDS011;2070;51.042;7.056;2023-04-16T12:24:07;17.63;;;10.67;;
4112;SDS011;2070;51.042;7.056;2023-04-16T12:26:42;24.03;;;11.23;;
4112;SDS011;2070;51.042;7.056;2023-04-16T12:31:39;20.80;;;10.73;;
4112;SDS011;2070;51.042;7.056;2023-04-16T12:34:04;15.37;;;10.00;;
4112;SDS011;2070;51.042;7.056;2023-04-16T12:36:29;16.77;;;9.30;;
4112;SDS011;2070;51.042;7.056;2023-04-16T12:38:55;17.07;;;10.47;;
4112;SDS011;2070;51.042;7.056;2023-04-16T12:41:20;16.77;;;10.60;;
4112;SDS011;2070;51.042;7.056;2023-04-16T12:43:45;19.20;;;10.17;;
4112;SDS011;2070;51.042;7.056;2023-04-16T12:46:11;17.30;;;9.80;;
4112;SDS011;2070;51.042;7.056;2023-04-16T12:48:36;14.37;;;9.47;;
4112;SDS011;2070;51.042;7.056;2023-04-16T12:51:01;11.30;;;8.87;;
4112;SDS011;2070;51.042;7.056;2023-04-16T12:53:27;16.00;;;10.80;;
4112;SDS011;2070;51.042;7.056;2023-04-16T12:55:52;20.40;;;9.70;;
4112;SDS011;2070;51.042;7.056;2023-04-16T12:58:17;13.30;;;9.13;;
4112;SDS011;2070;51.042;7.056;2023-04-16T13:00:42;16.17;;;10.00;;
4112;SDS011;2070;51.042;7.056;2023-04-16T13:03:08;19.10;;;9.50;;
4112;SDS011;2070;51.042;7.056;2023-04-16T13:05:33;19.70;;;10.13;;
4112;SDS011;2070;51.042;7.056;2023-04-16T13:07:58;19.20;;;10.80;;
4112;SDS011;2070;51.042;7.056;2023-04-16T13:10:23;19.97;;;10.83;;
4112;SDS011;2070;51.042;7.056;2023-04-16T13:12:48;15.83;;;8.70;;
4112;SDS011;2070;51.042;7.056;2023-04-16T13:15:14;17.57;;;9.80;;
4112;SDS011;2070;51.042;7.056;2023-04-16T13:17:39;16.13;;;10.50;;
4112;SDS011;2070;51.042;7.056;2023-04-16T13:20:05;14.10;;;9.90;;
4112;SDS011;2070;51.042;7.056;2023-04-16T13:22:30;15.47;;;10.33;;
4112;SDS011;2070;51.042;7.056;2023-04-16T13:24:55;18.30;;;11.00;;
4112;SDS011;2070;51.042;7.056;2023-04-16T13:27:21;15.93;;;11.97;;
4112;SDS011;2070;51.042;7.056;2023-04-16T13:29:49;19.57;;;12.73;;
4112;SDS011;2070;51.042;7.056;2023-04-16T13:32:14;20.70;;;12.70;;
4112;SDS011;2070;51.042;7.056;2023-04-16T13:34:39;20.80;;;11.80;;
4112;SDS011;2070;51.042;7.056;2023-04-16T13:37:04;15.87;;;12.67;;
4112;SDS011;2070;51.042;7.056;2023-04-16T13:39:30;16.73;;;11.67;;
4112;SDS011;2070;51.042;7.056;2023-04-16T13:41:55;14.70;;;9.73;;
4112;SDS011;2070;51.042;7.056;2023-04-16T13:44:20;15.87;;;11.33;;
4112;SDS011;2070;51.042;7.056;2023-04-16T13:46:45;17.40;;;10.37;;
4112;SDS011;2070;51.042;7.056;2023-04-16T13:49:11;16.00;;;12.43;;
4112;SDS011;2070;51.042;7.056;2023-04-16T13:51:37;15.20;;;10.77;;
4112;SDS011;2070;51.042;7.056;2023-04-16T13:54:02;21.67;;;11.30;;
4112;SDS011;2070;51.042;7.056;2023-04-16T13:56:27;13.30;;;9.17;;
4112;SDS011;2070;51.042;7.056;2023-04-16T13:58:52;16.90;;;10.37;;
4112;SDS011;2070;51.042;7.056;2023-04-16T14:01:17;15.40;;;10.07;;
4112;SDS011;2070;51.042;7.056;2023-04-16T14:03:43;17.53;;;11.67;;
4112;SDS011;2070;51.042;7.056;2023-04-16T14:06:08;22.00;;;10.97;;
4112;SDS011;2070;51.042;7.056;2023-04-16T14:08:33;17.50;;;10.17;;
4112;SDS011;2070;51.042;7.056;2023-04-16T14:10:58;16.57;;;9.63;;
4112;SDS011;2070;51.042;7.056;2023-04-16T14:13:24;24.17;;;11.17;;
4112;SDS011;2070;51.042;7.056;2023-04-16T14:15:52;16.80;;;11.60;;
4112;SDS011;2070;51.042;7.056;2023-04-16T14:18:17;23.30;;;10.37;;
4112;SDS011;2070;51.042;7.056;2023-04-16T14:20:42;20.27;;;11.20;;
4112;SDS011;2070;51.042;7.056;2023-04-16T14:23:08;24.93;;;12.00;;
4112;SDS011;2070;51.042;7.056;2023-04-16T14:25:33;27.37;;;11.97;;
4112;SDS011;2070;51.042;7.056;2023-04-16T14:27:58;26.43;;;12.67;;
4112;SDS011;2070;51.042;7.056;2023-04-16T14:30:24;17.07;;;10.97;;
4112;SDS011;2070;51.042;7.056;2023-04-16T14:32:49;15.13;;;10.33;;
4112;SDS011;2070;51.042;7.056;2023-04-16T14:35:15;19.07;;;11.07;;
4112;SDS011;2070;51.042;7.056;2023-04-16T14:37:40;17.40;;;11.60;;
4112;SDS011;2070;51.042;7.056;2023-04-16T14:40:09;19.10;;;11.70;;
4112;SDS011;2070;51.042;7.056;2023-04-16T14:42:35;14.07;;;10.47;;
4112;SDS011;2070;51.042;7.056;2023-04-16T14:45:03;23.43;;;10.93;;
4112;SDS011;2070;51.042;7.056;2023-04-16T14:47:30;15.10;;;9.60;;